Time;durP1;ratioP1;P1;durP2;ratioP2;P2;SDS_P1;SDS_P2;PMS_P1;PMS_P2;Temp;Humidity;BMP_temperature;BMP_pressure;BME280_temperature;BME280_humidity;BME280_pressure;Samples;Min_cycle;Max_cycle;Signal;HPM_P1;HPM_P2
2024/03/04 00:00:57;;;;;;;26.23;15.02;;;;;;;6.42;82.21;93599.03;5004835;28;20026;-77
2024/03/04 00:03:23;;;;;;;29.15;14.55;;;;;;;6.39;82.04;93591.69;5004608;28;20025;-78
2024/03/04 00:05:49;;;;;;;29.25;13.77;;;;;;;6.33;81.66;93597.34;5004864;28;20025;-78
2024/03/04 00:08:14;;;;;;;30.38;15.05;;;;;;;6.30;81.73;93590.03;5004849;28;20022;-78
2024/03/04 00:10:40;;;;;;;31.48;16.27;;;;;;;6.30;81.31;93596.09;5004720;28;20068;-78
2024/03/04 00:13:06;;;;;;;29.02;15.52;;;;;;;6.15;81.59;93599.78;5004617;28;20061;-78
2024/03/04 00:15:31;;;;;;;32.50;16.30;;;;;;;6.13;82.38;93588.72;5005064;28;20019;-78
2024/03/04 00:17:57;;;;;;;37.88;15.23;;;;;;;6.17;82.01;93591.56;5004841;28;20061;-78
2024/03/04 00:20:22;;;;;;;31.08;15.60;;;;;;;6.11;82.64;93590.88;5004822;28;20325;-77
2024/03/04 00:22:47;;;;;;;34.85;16.13;;;;;;;6.08;83.17;93594.09;5004781;28;20053;-78
2024/03/04 00:25:16;;;;;;;33.60;16.08;;;;;;;6.01;83.08;93575.16;5004447;28;20280;-77
2024/03/04 00:27:46;;;;;;;39.17;15.98;;;;;;;6.00;83.24;93573.59;5004777;28;20251;-75
2024/03/04 00:30:12;;;;;;;31.02;15.38;;;;;;;6.01;83.33;93572.53;5004289;28;20019;-74
2024/03/04 00:32:38;;;;;;;27.73;13.48;;;;;;;5.92;83.06;93572.38;5004195;28;20018;-75
2024/03/04 00:35:09;;;;;;;26.13;14.27;;;;;;;5.91;83.13;93570.03;5004239;28;20252;-74
2024/03/04 00:37:35;;;;;;;28.02;13.13;;;;;;;5.95;83.01;93577.13;5004348;28;20049;-75
2024/03/04 00:40:05;;;;;;;24.38;13.77;;;;;;;5.89;82.98;93570.31;5004193;28;20026;-75
2024/03/04 00:42:32;;;;;;;32.40;14.50;;;;;;;5.79;82.90;93573.91;5004183;28;20018;-74
2024/03/04 00:44:58;;;;;;;29.05;13.52;;;;;;;5.72;83.00;93576.16;5004070;28;20034;-74
2024/03/04 00:47:23;;;;;;;30.45;13.63;;;;;;;5.69;83.59;93568.78;5003979;28;20097;-75
2024/03/04 00:49:48;;;;;;;29.85;13.80;;;;;;;5.68;83.76;93567.22;5003256;28;20034;-72
2024/03/04 00:52:17;;;;;;;29.92;14.43;;;;;;;5.73;83.97;93561.06;5004008;28;20260;-74
2024/03/04 00:54:43;;;;;;;27.27;12.75;;;;;;;5.75;83.49;93558.91;5004036;28;20268;-74
2024/03/04 00:57:09;;;;;;;25.48;12.70;;;;;;;5.72;83.62;93557.63;5003901;28;20022;-74
2024/03/04 00:59:34;;;;;;;26.95;13.15;;;;;;;5.67;83.88;93564.84;5003969;28;20037;-74
2024/03/04 01:02:00;;;;;;;29.88;14.38;;;;;;;5.68;83.42;93561.94;5003980;28;20308;-75
2024/03/04 01:04:25;;;;;;;25.58;13.57;;;;;;;5.71;83.53;93569.28;5003894;28;20038;-75
2024/03/04 01:06:52;;;;;;;27.83;13.43;;;;;;;5.70;83.30;93551.84;5003781;28;20048;-75
2024/03/04 01:09:18;;;;;;;24.33;11.68;;;;;;;5.72;82.82;93562.13;5002729;28;20038;-75
2024/03/04 01:11:44;;;;;;;23.77;13.30;;;;;;;5.65;82.54;93562.50;5003754;28;20053;-75
2024/03/04 01:14:09;;;;;;;24.90;12.32;;;;;;;5.62;82.59;93550.66;5003700;28;20085;-75
2024/03/04 01:16:34;;;;;;;20.42;11.13;;;;;;;5.62;82.74;93565.72;5004086;28;20057;-76
2024/03/04 01:19:00;;;;;;;23.75;11.55;;;;;;;5.59;82.40;93559.13;5003910;28;20104;-76
2024/03/04 01:21:25;;;;;;;20.77;10.82;;;;;;;5.61;82.25;93558.84;5003620;28;20038;-76
2024/03/04 01:23:52;;;;;;;27.80;11.88;;;;;;;5.50;82.29;93565.38;5003685;28;20316;-76
2024/03/04 01:26:18;;;;;;;24.60;11.85;;;;;;;5.39;83.25;93564.75;5003777;28;20026;-77
2024/03/04 01:28:47;;;;;;;25.55;12.20;;;;;;;5.48;83.08;93572.81;5003620;28;20046;-77
2024/03/04 01:31:14;;;;;;;23.45;11.57;;;;;;;5.47;82.85;93563.31;5003682;28;20032;-76
2024/03/04 01:33:41;;;;;;;25.88;12.38;;;;;;;5.47;82.86;93572.00;5003625;28;20030;-76
2024/03/04 01:36:07;;;;;;;29.63;12.32;;;;;;;5.50;83.35;93570.69;5003395;28;20037;-76
2024/03/04 01:38:33;;;;;;;27.30;12.32;;;;;;;5.50;84.11;93573.31;5002466;28;20033;-77
2024/03/04 01:40:58;;;;;;;26.52;12.75;;;;;;;5.54;84.30;93569.03;5003655;28;20045;-76
2024/03/04 01:43:23;;;;;;;30.10;13.77;;;;;;;5.57;84.63;93569.22;5002296;28;20032;-77
2024/03/04 01:45:49;;;;;;;31.80;13.43;;;;;;;5.60;84.95;93565.22;5003568;28;20049;-78
2024/03/04 01:48:14;;;;;;;28.63;13.63;;;;;;;5.63;84.84;93567.28;5003473;28;20246;-78
2024/03/04 01:50:44;;;;;;;33.25;14.32;;;;;;;5.63;84.58;93575.22;5003395;28;20030;-78
2024/03/04 01:53:11;;;;;;;24.65;11.35;;;;;;;5.61;84.56;93572.06;5018581;28;20030;-77
2024/03/04 01:55:48;;;;;;;32.08;14.52;;;;;;;5.54;84.39;93577.75;5003519;28;20022;-77
2024/03/04 01:58:14;;;;;;;26.33;13.63;;;;;;;5.52;84.42;93569.31;5003393;28;20046;-77
2024/03/04 02:00:44;;;;;;;28.27;12.25;;;;;;;5.53;84.31;93570.09;5003024;28;20018;-77
2024/03/04 02:03:12;;;;;;;30.63;12.70;;;;;;;5.48;84.23;93564.91;5006298;28;20026;-77
2024/03/04 02:05:39;;;;;;;28.00;12.63;;;;;;;5.50;83.88;93563.53;5007174;28;20035;-76
2024/03/04 02:08:06;;;;;;;22.75;10.70;;;;;;;5.51;83.59;93569.59;5007204;28;20030;-75
2024/03/04 02:10:32;;;;;;;21.17;10.38;;;;;;;5.48;83.42;93567.53;5007105;28;20026;-74
2024/03/04 02:12:58;;;;;;;25.63;10.18;;;;;;;5.50;83.51;93570.69;5006661;28;20018;-74
2024/03/04 02:15:24;;;;;;;20.27;10.27;;;;;;;5.52;83.96;93568.53;5006887;28;20029;-74
2024/03/04 02:17:49;;;;;;;24.85;11.10;;;;;;;5.47;84.04;93565.94;5006831;28;20034;-74
2024/03/04 02:20:16;;;;;;;20.27;9.07;;;;;;;5.45;84.17;93573.38;5006717;28;20042;-74
2024/03/04 02:22:42;;;;;;;20.75;10.30;;;;;;;5.45;83.66;93581.31;5006646;28;20213;-75
2024/03/04 02:25:11;;;;;;;20.15;9.63;;;;;;;5.38;83.27;93571.88;5006644;28;20093;-75
2024/03/04 02:27:42;;;;;;;20.60;10.63;;;;;;;5.41;83.49;93579.25;5006753;28;20030;-75
2024/03/04 02:30:08;;;;;;;25.40;13.60;;;;;;;5.42;83.55;93586.09;5006794;28;20026;-74
2024/03/04 02:32:34;;;;;;;23.77;11.93;;;;;;;5.45;83.77;93582.09;5006710;28;20015;-75
2024/03/04 02:35:04;;;;;;;27.55;13.73;;;;;;;5.40;83.72;93582.97;5006637;28;20022;-76
2024/03/04 02:37:31;;;;;;;24.63;11.07;;;;;;;5.43;83.87;93582.41;5006484;28;20019;-76
2024/03/04 02:39:57;;;;;;;25.42;10.65;;;;;;;5.33;84.06;93585.19;5006505;28;20022;-76
2024/03/04 02:42:22;;;;;;;24.85;11.95;;;;;;;5.32;84.61;93580.19;5006625;28;20025;-75
2024/03/04 02:44:48;;;;;;;22.20;11.68;;;;;;;5.30;84.73;93585.75;5006621;28;20025;-76
2024/03/04 02:47:14;;;;;;;24.90;12.57;;;;;;;5.30;84.75;93588.41;5006389;28;20019;-76
2024/03/04 02:49:40;;;;;;;27.90;11.70;;;;;;;5.29;84.54;93583.38;5005366;28;20042;-76
2024/03/04 02:52:08;;;;;;;22.52;10.20;;;;;;;5.29;84.24;93596.59;5005139;28;20105;-76
2024/03/04 02:54:33;;;;;;;18.95;10.43;;;;;;;5.29;83.85;93592.13;5005249;28;20101;-76
2024/03/04 02:56:59;;;;;;;23.33;10.90;;;;;;;5.28;83.41;93595.81;5005136;28;20057;-76
2024/03/04 02:59:24;;;;;;;23.17;10.80;;;;;;;5.31;83.76;93607.66;5004995;28;20034;-76
2024/03/04 03:01:50;;;;;;;23.30;10.25;;;;;;;5.26;83.89;93597.19;5004874;28;20089;-76
2024/03/04 03:04:16;;;;;;;22.52;10.48;;;;;;;5.20;83.65;93607.81;5004978;28;20030;-76
2024/03/04 03:06:44;;;;;;;22.75;10.27;;;;;;;5.20;83.48;93609.69;5019948;28;20034;-76
2024/03/04 03:09:11;;;;;;;19.67;9.48;;;;;;;5.20;83.20;93601.75;5004884;28;20228;-76
2024/03/04 03:11:37;;;;;;;20.67;10.20;;;;;;;5.13;83.53;93598.66;5004860;28;20027;-76
2024/03/04 03:14:03;;;;;;;21.00;10.00;;;;;;;5.08;83.56;93596.88;5004518;28;20138;-77
2024/03/04 03:16:29;;;;;;;27.15;11.30;;;;;;;5.11;83.64;93598.97;5004791;28;20428;-77
2024/03/04 03:18:57;;;;;;;25.05;11.35;;;;;;;5.14;83.47;93602.88;5004570;28;20034;-76
2024/03/04 03:21:23;;;;;;;19.77;9.73;;;;;;;5.13;83.15;93603.94;5004411;28;20089;-76
2024/03/04 03:23:52;;;;;;;21.88;11.55;;;;;;;5.14;83.20;93605.53;5004604;28;20089;-76
2024/03/04 03:26:18;;;;;;;22.13;10.70;;;;;;;5.09;83.27;93605.59;5004598;28;20041;-76
2024/03/04 03:28:44;;;;;;;23.85;10.52;;;;;;;5.03;83.20;93605.66;5004460;28;20018;-76
2024/03/04 03:31:10;;;;;;;17.67;8.95;;;;;;;4.97;83.56;93614.72;5004299;28;20026;-76
2024/03/04 03:33:36;;;;;;;19.75;9.48;;;;;;;4.96;83.39;93604.44;5004362;28;20018;-76
2024/03/04 03:36:02;;;;;;;17.50;9.05;;;;;;;4.96;83.16;93605.22;5004898;28;20157;-77
2024/03/04 03:38:28;;;;;;;18.05;8.30;;;;;;;4.95;83.12;93606.28;5004454;28;20018;-76
2024/03/04 03:40:54;;;;;;;18.90;8.32;;;;;;;4.95;83.02;93610.81;5004472;28;20046;-76
2024/03/04 03:43:20;;;;;;;22.35;7.72;;;;;;;4.97;83.14;93617.38;5004189;28;20029;-76
2024/03/04 03:45:46;;;;;;;14.27;7.10;;;;;;;4.91;83.15;93615.84;5004439;28;20049;-76
2024/03/04 03:48:11;;;;;;;14.33;7.13;;;;;;;4.95;82.96;93622.16;4964742;28;1143816;-76
2024/03/04 03:50:37;;;;;;;19.38;7.25;;;;;;;4.91;83.00;93618.50;5005409;28;20022;-76
2024/03/04 03:53:02;;;;;;;19.38;8.60;;;;;;;4.89;83.42;93625.13;5005238;28;20027;-74
2024/03/04 03:55:28;;;;;;;15.70;7.65;;;;;;;4.89;83.58;93620.63;5003876;28;20085;-76
2024/03/04 03:57:53;;;;;;;17.17;7.00;;;;;;;4.89;83.72;93619.84;5005446;28;20026;-78
2024/03/04 04:00:19;;;;;;;18.73;7.18;;;;;;;4.89;83.43;93612.72;5005272;28;20022;-77
2024/03/04 04:02:44;;;;;;;16.38;7.22;;;;;;;4.89;83.52;93620.63;5005244;28;20149;-77
2024/03/04 04:05:10;;;;;;;15.82;7.43;;;;;;;4.84;83.64;93623.31;5005410;28;20041;-77
2024/03/04 04:07:35;;;;;;;15.07;7.63;;;;;;;4.85;83.63;93621.50;5005325;28;20105;-77
2024/03/04 04:10:01;;;;;;;17.20;6.93;;;;;;;4.82;83.87;93625.47;5005415;28;20026;-77
2024/03/04 04:12:26;;;;;;;14.13;6.90;;;;;;;4.84;83.28;93628.59;5003998;28;20057;-77
2024/03/04 04:14:51;;;;;;;13.98;7.28;;;;;;;4.78;82.13;93629.72;5005293;28;20088;-77
2024/03/04 04:17:17;;;;;;;18.73;9.00;;;;;;;4.77;83.48;93634.22;5004933;28;20224;-77
2024/03/04 04:19:42;;;;;;;22.35;10.18;;;;;;;4.81;84.40;93635.25;5005003;28;20124;-77
2024/03/04 04:22:08;;;;;;;16.27;8.65;;;;;;;4.81;85.18;93622.03;5005021;28;20034;-77
2024/03/04 04:24:37;;;;;;;19.17;9.70;;;;;;;4.85;84.62;93632.06;5004439;28;20104;-77
2024/03/04 04:27:03;;;;;;;20.50;9.43;;;;;;;4.82;84.26;93636.03;5004997;28;20029;-77
2024/03/04 04:29:28;;;;;;;26.10;10.98;;;;;;;4.84;84.55;93625.97;5005034;28;20022;-77
2024/03/04 04:31:55;;;;;;;23.17;11.95;;;;;;;4.89;85.10;93636.47;5004753;28;20036;-77
2024/03/04 04:34:20;;;;;;;26.33;11.18;;;;;;;4.92;85.11;93635.91;5004784;28;20229;-77
2024/03/04 04:36:50;;;;;;;21.65;10.55;;;;;;;4.92;84.33;93629.84;5004686;28;20034;-77
2024/03/04 04:39:15;;;;;;;27.25;11.32;;;;;;;4.76;83.75;93639.78;5004428;28;20339;-77
2024/03/04 04:41:40;;;;;;;29.70;12.27;;;;;;;4.78;83.54;93625.25;5004430;28;20093;-76
2024/03/04 04:44:06;;;;;;;29.58;13.00;;;;;;;4.81;83.14;93642.38;5004598;28;20030;-77
2024/03/04 04:46:32;;;;;;;26.05;11.20;;;;;;;4.80;82.88;93641.59;5004632;28;20097;-76
2024/03/04 04:48:57;;;;;;;25.60;12.30;;;;;;;4.63;82.94;93628.06;5004097;28;20233;-76
2024/03/04 04:51:22;;;;;;;26.20;10.82;;;;;;;4.66;83.22;93639.91;5004332;28;20025;-77
2024/03/04 04:53:48;;;;;;;26.35;11.43;;;;;;;4.70;82.95;93639.09;5004165;28;20093;-77
2024/03/04 04:56:20;;;;;;;22.52;12.05;;;;;;;4.73;83.00;93646.44;5003953;28;20617;-76
2024/03/04 04:58:45;;;;;;;21.75;10.75;;;;;;;4.74;82.57;93628.72;5004367;28;20093;-76
2024/03/04 05:01:10;;;;;;;18.95;9.40;;;;;;;4.69;82.60;93639.34;5003879;28;20065;-76
2024/03/04 05:03:36;;;;;;;22.05;9.30;;;;;;;4.68;82.82;93641.22;5003794;28;20026;-77
2024/03/04 05:06:02;;;;;;;21.17;9.60;;;;;;;4.74;82.46;93649.84;5003960;28;20217;-77
2024/03/04 05:08:27;;;;;;;16.40;8.20;;;;;;;4.70;82.60;93641.72;5003648;28;20018;-76
2024/03/04 05:10:53;;;;;;;20.38;8.90;;;;;;;4.72;82.66;93649.34;5004165;28;20025;-76
2024/03/04 05:13:20;;;;;;;25.88;9.82;;;;;;;4.65;82.65;93656.81;5004311;28;20209;-77
2024/03/04 05:15:46;;;;;;;18.45;9.32;;;;;;;4.68;82.78;93662.34;5004384;28;20022;-76
2024/03/04 05:18:12;;;;;;;21.48;9.95;;;;;;;4.69;82.92;93653.34;5003698;28;20097;-76
2024/03/04 05:20:37;;;;;;;17.35;8.82;;;;;;;4.73;83.07;93664.13;5003882;28;20057;-76
2024/03/04 05:23:03;;;;;;;14.70;8.20;;;;;;;4.77;83.38;93660.63;5003582;28;20061;-75
2024/03/04 05:25:28;;;;;;;15.65;7.75;;;;;;;4.82;83.20;93657.97;5003551;28;20018;-75
2024/03/04 05:27:53;;;;;;;15.05;8.52;;;;;;;4.89;82.99;93670.81;5002406;28;20050;-75
2024/03/04 05:30:19;;;;;;;19.05;9.07;;;;;;;4.91;83.34;93670.53;5003517;28;20015;-75
2024/03/04 05:32:44;;;;;;;20.38;9.27;;;;;;;4.91;83.63;93660.75;5003400;28;20014;-75
2024/03/04 05:35:12;;;;;;;25.02;9.63;;;;;;;5.03;83.68;93663.00;5003265;28;20093;-75
2024/03/04 05:37:40;;;;;;;19.08;9.43;;;;;;;5.10;83.98;93662.66;5003367;28;20038;-75
2024/03/04 05:40:09;;;;;;;24.35;9.35;;;;;;;5.12;84.23;93665.78;5003288;28;20346;-74
2024/03/04 05:42:39;;;;;;;20.95;10.50;;;;;;;5.21;84.14;93661.44;5003481;28;20026;-75
2024/03/04 05:45:06;;;;;;;23.95;10.23;;;;;;;5.31;83.60;93668.47;5003679;28;20090;-75
2024/03/04 05:47:31;;;;;;;23.13;10.60;;;;;;;5.30;83.44;93666.91;5003538;28;20057;-74
2024/03/04 05:49:57;;;;;;;23.48;10.48;;;;;;;5.35;83.84;93678.19;5003541;28;20046;-77
2024/03/04 05:52:25;;;;;;;29.45;12.65;;;;;;;5.44;83.88;93670.41;5002436;28;20025;-78
2024/03/04 05:54:51;;;;;;;28.58;13.10;;;;;;;5.49;83.70;93674.84;5003247;28;20022;-77
2024/03/04 05:57:16;;;;;;;27.95;13.20;;;;;;;5.51;83.77;93667.41;5003203;28;20037;-76
2024/03/04 05:59:42;;;;;;;28.02;14.13;;;;;;;5.57;84.17;93674.19;5003528;28;20221;-77
2024/03/04 06:02:07;;;;;;;28.48;13.70;;;;;;;5.70;84.18;93662.91;5003657;28;20030;-77
2024/03/04 06:04:33;;;;;;;31.92;15.30;;;;;;;5.83;83.88;93658.75;5003605;28;20045;-77
2024/03/04 06:06:58;;;;;;;27.05;14.43;;;;;;;5.87;84.17;93665.03;5003483;28;20061;-78
2024/03/04 06:09:26;;;;;;;30.40;15.00;;;;;;;5.97;83.96;93656.97;5003678;28;20034;-78
2024/03/04 06:11:51;;;;;;;33.05;16.35;;;;;;;6.10;83.99;93660.72;5003542;28;20022;-78
2024/03/04 06:14:18;;;;;;;36.90;16.02;;;;;;;6.20;83.83;93657.91;5018674;28;20030;-76
2024/03/04 06:16:44;;;;;;;34.88;16.60;;;;;;;6.28;83.65;93661.75;5003360;28;20268;-75
2024/03/04 06:19:09;;;;;;;31.08;14.95;;;;;;;6.37;83.59;93665.34;5003201;28;20033;-75
2024/03/04 06:21:36;;;;;;;34.72;15.30;;;;;;;6.47;83.46;93664.34;5003018;28;20097;-75
2024/03/04 06:24:02;;;;;;;29.48;15.65;;;;;;;6.57;83.10;93660.75;5003183;28;20049;-76
2024/03/04 06:26:28;;;;;;;26.38;13.85;;;;;;;6.67;82.76;93657.13;5003178;28;20022;-75
2024/03/04 06:28:53;;;;;;;28.20;14.70;;;;;;;6.78;82.65;93655.88;5003174;28;20015;-75
2024/03/04 06:31:19;;;;;;;23.67;11.48;;;;;;;6.90;82.10;93656.19;5003023;28;20328;-75
2024/03/04 06:33:44;;;;;;;23.02;11.15;;;;;;;7.00;81.94;93663.13;5002906;28;20032;-75
2024/03/04 06:36:09;;;;;;;21.33;10.77;;;;;;;7.10;81.32;93662.91;5018004;28;20022;-75
2024/03/04 06:38:35;;;;;;;16.35;8.07;;;;;;;7.18;81.07;93653.50;5002998;28;20351;-75
2024/03/04 06:41:05;;;;;;;15.52;7.28;;;;;;;7.28;79.84;93655.94;5002823;28;20089;-76
2024/03/04 06:43:32;;;;;;;18.25;7.63;;;;;;;7.35;79.38;93650.25;5002839;28;20025;-76
2024/03/04 06:45:58;;;;;;;14.23;7.38;;;;;;;7.42;79.23;93643.44;5002882;28;20030;-75
2024/03/04 06:48:23;;;;;;;14.50;6.63;;;;;;;7.53;78.33;93646.69;5004833;28;20073;-75
2024/03/04 06:50:49;;;;;;;11.63;6.07;;;;;;;7.63;77.59;93648.31;5006155;28;20018;-76
2024/03/04 06:53:14;;;;;;;13.63;6.72;;;;;;;7.69;77.36;93644.44;5006447;28;20332;-76
2024/03/04 06:55:39;;;;;;;15.20;7.72;;;;;;;7.79;76.91;93651.41;5006291;28;20108;-78
2024/03/04 06:58:05;;;;;;;14.68;7.38;;;;;;;7.90;76.71;93644.00;5006727;28;20022;-77
2024/03/04 07:00:30;;;;;;;21.13;8.10;;;;;;;7.99;76.08;93655.47;5006630;28;20123;-78
2024/03/04 07:02:56;;;;;;;23.38;7.78;;;;;;;8.09;75.47;93649.91;5006156;28;20084;-78
2024/03/04 07:05:21;;;;;;;19.73;6.88;;;;;;;8.11;75.25;93653.06;5006302;28;20038;-78
2024/03/04 07:07:46;;;;;;;19.25;7.68;;;;;;;8.19;75.30;93652.31;5006534;28;20026;-78
2024/03/04 07:10:12;;;;;;;16.40;7.93;;;;;;;8.29;75.00;93658.47;5006068;28;20030;-78
2024/03/04 07:12:37;;;;;;;23.05;8.85;;;;;;;8.39;74.47;93652.91;5006248;28;20026;-80
2024/03/04 07:15:06;;;;;;;29.52;9.95;;;;;;;8.46;74.48;93655.16;5006327;28;20095;-80
2024/03/04 07:17:32;;;;;;;16.20;9.00;;;;;;;8.52;74.05;93656.59;5006154;28;20034;-80
2024/03/04 07:19:57;;;;;;;20.20;9.20;;;;;;;8.58;73.96;93658.03;5006412;28;20244;-81
2024/03/04 07:22:23;;;;;;;17.27;8.93;;;;;;;8.64;73.50;93657.59;5006613;28;20045;-81
2024/03/04 07:24:48;;;;;;;20.88;8.55;;;;;;;8.70;72.93;93655.59;5006222;28;20061;-81
2024/03/04 07:27:14;;;;;;;15.82;8.20;;;;;;;8.78;72.35;93654.09;5005767;28;20037;-77
2024/03/04 07:29:40;;;;;;;20.30;8.73;;;;;;;8.81;72.08;93648.13;5006216;28;20313;-77
2024/03/04 07:32:06;;;;;;;23.92;9.93;;;;;;;8.92;72.05;93657.44;5005890;28;20049;-76
2024/03/04 07:34:32;;;;;;;21.63;9.30;;;;;;;8.98;72.11;93650.88;5005261;28;20042;-81
2024/03/04 07:36:57;;;;;;;18.63;8.70;;;;;;;9.06;71.99;93657.31;5005290;28;20033;-77
2024/03/04 07:39:23;;;;;;;20.50;9.38;;;;;;;9.12;71.36;93658.75;5005977;28;20050;-79
2024/03/04 07:41:50;;;;;;;19.63;9.60;;;;;;;9.17;71.15;93655.16;5006097;28;20284;-79
2024/03/04 07:44:16;;;;;;;18.02;9.50;;;;;;;9.26;70.67;93658.63;5005757;28;20029;-78
2024/03/04 07:46:42;;;;;;;22.42;8.95;;;;;;;9.28;70.74;93655.66;5005990;28;20025;-77
2024/03/04 07:49:07;;;;;;;19.80;10.45;;;;;;;9.28;70.36;93645.81;5005169;28;20117;-77
2024/03/04 07:51:33;;;;;;;24.33;10.05;;;;;;;9.22;70.74;93657.69;5005686;28;20026;-77
2024/03/04 07:53:58;;;;;;;21.90;9.98;;;;;;;9.32;70.83;93654.75;5005716;28;20030;-77
2024/03/04 07:56:23;;;;;;;29.52;11.88;;;;;;;9.37;70.90;93654.59;5005369;28;20022;-77
2024/03/04 07:58:49;;;;;;;23.50;10.65;;;;;;;9.42;70.67;93643.00;5004448;28;20022;-77
2024/03/04 08:01:15;;;;;;;23.02;10.23;;;;;;;9.50;70.13;93644.13;5005039;28;20022;-77
2024/03/04 08:03:40;;;;;;;26.67;11.30;;;;;;;9.57;69.87;93658.53;5005584;28;20038;-77
2024/03/04 08:06:06;;;;;;;18.73;10.38;;;;;;;9.67;69.41;93656.66;5004010;28;20034;-76
2024/03/04 08:08:32;;;;;;;23.85;10.35;;;;;;;9.64;69.00;93658.84;5005453;28;20022;-77
2024/03/04 08:10:57;;;;;;;18.38;9.65;;;;;;;9.65;69.31;93643.69;5003805;28;20316;-76
2024/03/04 08:13:22;;;;;;;26.27;10.40;;;;;;;9.68;69.00;93652.91;5005128;28;20019;-77
2024/03/04 08:15:48;;;;;;;18.77;10.63;;;;;;;9.77;69.05;93643.84;5005385;28;20022;-77
2024/03/04 08:18:14;;;;;;;19.40;10.40;;;;;;;9.89;68.63;93642.41;5004812;28;20030;-77
2024/03/04 08:20:40;;;;;;;21.92;9.48;;;;;;;9.89;66.44;93642.41;5004815;28;20026;-76
2024/03/04 08:23:06;;;;;;;24.15;9.13;;;;;;;9.95;66.91;93641.97;5004751;28;20026;-76
2024/03/04 08:25:31;;;;;;;17.30;9.00;;;;;;;10.02;67.56;93636.94;5005049;28;20022;-76
2024/03/04 08:27:57;;;;;;;22.65;10.25;;;;;;;10.11;67.13;93642.25;5004854;28;20026;-76
2024/03/04 08:30:22;;;;;;;30.00;13.05;;;;;;;10.19;66.53;93640.69;5004677;28;20024;-76
2024/03/04 08:32:51;;;;;;;20.23;10.10;;;;;;;10.07;65.99;93638.66;5004575;28;20023;-77
2024/03/04 08:35:16;;;;;;;24.02;9.95;;;;;;;9.99;66.37;93631.44;5021910;28;20031;-92
2024/03/04 08:37:42;;;;;;;26.83;10.35;;;;;;;10.13;66.52;93626.75;5022725;28;20030;-94
2024/03/04 08:40:08;;;;;;;23.42;10.23;;;;;;;10.24;66.72;93633.31;5006444;28;20023;-94
2024/03/04 08:42:38;;;;;;;25.38;11.38;;;;;;;10.32;66.62;93628.31;5006477;28;20030;-94
2024/03/04 08:45:04;;;;;;;27.90;10.95;;;;;;;10.37;66.08;93620.16;5006478;28;20026;-92
2024/03/04 08:47:29;;;;;;;19.08;9.88;;;;;;;10.51;66.39;93620.75;5005551;28;20026;-90
2024/03/04 08:49:56;;;;;;;21.08;9.75;;;;;;;10.66;66.48;93621.34;5005216;28;20045;-86
2024/03/04 08:52:22;;;;;;;23.10;11.88;;;;;;;10.84;66.26;93625.50;5004938;28;20232;-83
2024/03/04 08:54:47;;;;;;;22.65;11.65;;;;;;;10.92;65.80;93618.56;5003865;28;20049;-84
2024/03/04 08:57:12;;;;;;;20.63;10.40;;;;;;;11.00;65.31;93621.19;5004866;28;20117;-83
2024/03/04 08:59:38;;;;;;;26.45;11.95;;;;;;;11.13;65.31;93610.63;5004381;28;20045;-84
2024/03/04 09:02:04;;;;;;;23.23;10.15;;;;;;;11.17;64.78;93615.00;5004785;28;20026;-86
2024/03/04 09:04:30;;;;;;;28.52;10.95;;;;;;;11.29;64.83;93611.63;5004584;28;20026;-86
2024/03/04 09:06:55;;;;;;;22.85;10.13;;;;;;;11.43;64.32;93604.16;5005468;28;20382;-88
2024/03/04 09:09:21;;;;;;;22.55;11.75;;;;;;;11.48;63.18;93605.88;5005602;28;20090;-86
2024/03/04 09:11:48;;;;;;;21.55;10.40;;;;;;;11.57;63.42;93605.81;5004529;28;20344;-84
2024/03/04 09:14:13;;;;;;;18.67;10.63;;;;;;;11.68;62.82;93609.63;5005131;28;20216;-85
2024/03/04 09:16:38;;;;;;;25.10;11.25;;;;;;;11.77;62.75;93602.38;5019664;28;20022;-88
2024/03/04 09:19:04;;;;;;;21.63;9.48;;;;;;;11.88;62.49;93609.97;5003538;28;20029;-85
2024/03/04 09:21:29;;;;;;;21.67;10.45;;;;;;;11.99;62.55;93611.19;5004042;28;20320;-83
2024/03/04 09:23:54;;;;;;;20.17;10.18;;;;;;;11.98;61.92;93610.38;5003863;28;20037;-83
2024/03/04 09:26:20;;;;;;;20.23;9.18;;;;;;;12.14;61.02;93612.47;5003628;28;20053;-82
2024/03/04 09:28:50;;;;;;;16.60;9.18;;;;;;;12.22;59.89;93615.03;5003747;28;20038;-83
2024/03/04 09:31:15;;;;;;;23.63;10.18;;;;;;;12.36;59.31;93614.00;5003710;28;20018;-88
2024/03/04 09:33:41;;;;;;;22.00;10.02;;;;;;;12.47;58.38;93607.09;5003886;28;20339;-87
2024/03/04 09:36:07;;;;;;;18.40;9.88;;;;;;;12.47;59.03;93606.31;5003965;28;20030;-88
2024/03/04 09:38:32;;;;;;;22.83;10.80;;;;;;;12.53;59.48;93603.09;5004454;28;20224;-89
2024/03/04 09:40:59;;;;;;;18.10;10.52;;;;;;;12.64;59.09;93603.47;5003948;28;20217;-83
2024/03/04 09:43:31;;;;;;;20.48;10.93;;;;;;;12.74;58.49;93599.56;5004010;28;20206;-82
2024/03/04 09:45:58;;;;;;;19.88;9.77;;;;;;;12.90;58.39;93597.81;5003695;28;20093;-81
2024/03/04 09:48:25;;;;;;;24.25;11.95;;;;;;;13.04;59.03;93602.81;5002137;28;20214;-82
2024/03/04 09:50:52;;;;;;;20.83;10.88;;;;;;;13.17;57.87;93593.69;5003878;28;20026;-82
2024/03/04 09:53:18;;;;;;;18.40;11.30;;;;;;;13.32;58.17;93592.25;5003841;28;20030;-83
2024/03/04 09:55:44;;;;;;;26.42;11.15;;;;;;;13.49;56.75;93585.09;5003422;28;20383;-79
2024/03/04 09:58:10;;;;;;;31.63;10.82;;;;;;;13.57;57.08;93584.19;5002461;28;20026;-83
2024/03/04 10:00:37;;;;;;;23.23;10.60;;;;;;;13.61;55.39;93587.75;5003498;28;20025;-82
2024/03/04 10:03:06;;;;;;;18.33;9.88;;;;;;;13.67;56.18;93574.91;5003621;28;20057;-81
2024/03/04 10:05:32;;;;;;;18.10;9.50;;;;;;;13.75;56.22;93587.38;5003725;28;20252;-85
2024/03/04 10:07:57;;;;;;;19.95;9.48;;;;;;;13.84;54.10;93586.13;5003713;28;20030;-83
2024/03/04 10:10:23;;;;;;;18.88;9.95;;;;;;;13.65;54.73;93581.38;5003575;28;20096;-82
2024/03/04 10:12:49;;;;;;;26.60;11.23;;;;;;;13.81;54.77;93589.47;5003401;28;20042;-82
2024/03/04 10:15:16;;;;;;;22.30;10.18;;;;;;;13.92;54.54;93579.09;5002558;28;20313;-83
2024/03/04 10:17:41;;;;;;;20.10;10.77;;;;;;;14.02;55.06;93573.25;5003246;28;20105;-83
2024/03/04 10:20:09;;;;;;;28.27;10.70;;;;;;;14.09;55.24;93564.59;5003480;28;20037;-83
2024/03/04 10:22:36;;;;;;;19.58;11.85;;;;;;;14.15;55.28;93567.81;5003276;28;20033;-81
2024/03/04 10:25:06;;;;;;;25.65;11.15;;;;;;;14.19;55.29;93572.16;5007165;28;20030;-82
2024/03/04 10:27:33;;;;;;;20.30;11.45;;;;;;;14.21;55.15;93564.56;5007531;28;20026;-82
2024/03/04 10:30:09;;;;;;;23.65;11.60;;;;;;;14.18;54.37;93556.41;5006365;28;20105;-82
2024/03/04 10:32:37;;;;;;;29.73;12.40;;;;;;;14.23;55.16;93558.84;5007154;28;20265;-83
2024/03/04 10:35:04;;;;;;;23.60;11.93;;;;;;;14.27;54.56;93540.97;5006866;28;20034;-81
2024/03/04 10:37:30;;;;;;;24.35;12.57;;;;;;;14.32;54.31;93548.75;5006961;28;20022;-83
2024/03/04 10:39:56;;;;;;;20.50;11.45;;;;;;;14.41;54.72;93546.69;5006741;28;20030;-84
2024/03/04 10:42:22;;;;;;;26.77;11.90;;;;;;;14.50;54.57;93535.78;5006800;28;20041;-83
2024/03/04 10:44:48;;;;;;;27.77;11.73;;;;;;;14.60;54.54;93532.63;5007030;28;20026;-84
2024/03/04 10:47:14;;;;;;;23.45;11.30;;;;;;;14.57;53.51;93530.66;5007039;28;20023;-84
2024/03/04 10:49:40;;;;;;;25.35;12.15;;;;;;;14.70;53.28;93534.00;5006878;28;20216;-83
2024/03/04 10:52:05;;;;;;;20.80;11.20;;;;;;;14.71;53.30;93526.72;5006919;28;20018;-82
2024/03/04 10:54:31;;;;;;;32.33;12.00;;;;;;;14.76;52.99;93515.75;5006627;28;20030;-84
2024/03/04 10:56:59;;;;;;;21.17;12.18;;;;;;;14.88;52.65;93520.22;5006776;28;20022;-83
2024/03/04 10:59:36;;;;;;;23.33;11.90;;;;;;;14.79;51.94;93512.38;5007038;28;20153;-85
2024/03/04 11:02:06;;;;;;;23.15;12.57;;;;;;;15.02;52.89;93505.25;5006790;28;20198;-84
2024/03/04 11:04:32;;;;;;;28.33;12.68;;;;;;;15.22;52.25;93497.22;5006719;28;20032;-84
2024/03/04 11:06:58;;;;;;;24.45;12.50;;;;;;;15.34;51.45;93502.47;5006714;28;20042;-85
2024/03/04 11:09:23;;;;;;;19.90;10.18;;;;;;;15.45;51.08;93506.16;5006277;28;20227;-81
2024/03/04 11:11:58;;;;;;;23.92;12.38;;;;;;;15.55;49.96;93499.47;5006411;28;20018;-81
2024/03/04 11:14:36;;;;;;;29.35;12.90;;;;;;;15.51;50.08;93503.19;5006246;28;20019;-83
2024/03/04 11:17:28;;;;;;;25.92;12.75;;;;;;;15.73;50.34;93504.44;5006217;28;20018;-84
2024/03/04 11:19:55;;;;;;;22.90;11.90;;;;;;;15.70;49.62;93500.53;5006115;28;20379;-83
2024/03/04 11:22:24;;;;;;;19.42;11.50;;;;;;;15.89;49.91;93493.63;5005956;28;20038;-83